Time;durP1;ratioP1;P1;durP2;ratioP2;P2;SDS_P1;SDS_P2;PMS_P1;PMS_P2;Temp;Humidity;BMP_temperature;BMP_pressure;BME280_temperature;BME280_humidity;BME280_pressure;Samples;Min_cycle;Max_cycle;Signal;HPM_P1;HPM_P2
2022/11/23 00:01:32;;;;;;;22.15;10.90;;;11.40;99.90;;;;;;4992440;28;20057;-69
2022/11/23 00:04:36;;;;;;;20.42;11.27;;;;;;;;;;4992728;28;20069;-69
2022/11/23 00:07:41;;;;;;;22.77;11.38;;;;;;;;;;4992519;28;20049;-69
2022/11/23 00:10:45;;;;;;;24.98;13.38;;;;;;;;;;4992240;28;20041;-69
2022/11/23 00:13:49;;;;;;;18.45;10.70;;;;;;;;;;4992507;28;20053;-69
2022/11/23 00:16:53;;;;;;;21.17;12.15;;;;;;;;;;4992253;28;20037;-69
2022/11/23 00:19:58;;;;;;;22.30;11.70;;;;;;;;;;4992046;28;20058;-69
2022/11/23 00:23:02;;;;;;;19.35;10.40;;;;;;;;;;4992228;28;20045;-69
2022/11/23 00:26:06;;;;;;;17.75;10.43;;;11.50;99.90;;;;;;4992143;28;20045;-69
2022/11/23 00:29:11;;;;;;;21.80;12.27;;;;;;;;;;4992177;28;20042;-69
2022/11/23 00:32:17;;;;;;;24.73;12.57;;;;;;;;;;4992330;28;20057;-69
2022/11/23 00:35:21;;;;;;;31.75;15.85;;;;;;;;;;4991268;28;20037;-69
2022/11/23 00:38:26;;;;;;;26.48;16.08;;;;;;;;;;4991026;28;20041;-69
2022/11/23 00:41:30;;;;;;;26.05;14.05;;;;;;;;;;5002338;28;20517;-70
2022/11/23 00:44:34;;;;;;;22.25;13.43;;;;;;;;;;4991920;28;20398;-69
2022/11/23 00:47:39;;;;;;;24.25;12.23;;;;;;;;;;4991883;28;20045;-69
2022/11/23 00:50:43;;;;;;;24.40;13.88;;;;;;;;;;4992007;28;20049;-69
2022/11/23 00:53:49;;;;;;;29.75;17.95;;;11.80;99.90;;;;;;5002603;28;20049;-69
2022/11/23 00:56:53;;;;;;;31.50;18.00;;;;;;;;;;5002268;28;20050;-69
2022/11/23 01:00:00;;;;;;;33.45;17.13;;;11.70;99.90;;;;;;4991587;28;20425;-69
2022/11/23 01:03:04;;;;;;;25.75;14.48;;;15.50;99.90;;;;;;4991567;28;20046;-69
2022/11/23 01:06:11;;;;;;;22.00;13.50;;;11.70;99.90;;;;;;4991549;28;20049;-69
2022/11/23 01:09:17;;;;;;;17.20;9.18;;;12.90;99.90;;;;;;5002354;28;20065;-69
2022/11/23 01:12:21;;;;;;;14.77;8.88;;;;;;;;;;5002167;28;20045;-70
2022/11/23 01:15:26;;;;;;;17.40;8.27;;;11.90;99.90;;;;;;5002058;28;20061;-69
2022/11/23 01:18:30;;;;;;;17.77;9.13;;;;;;;;;;4991448;28;20049;-69
2022/11/23 01:21:35;;;;;;;18.65;9.35;;;11.80;99.90;;;;;;4990597;28;20053;-69
2022/11/23 01:24:39;;;;;;;23.10;9.02;;;;;;;;;;5001985;28;20049;-69
2022/11/23 01:27:46;;;;;;;17.63;9.38;;;;;;;;;;5001951;28;20053;-69
2022/11/23 01:30:50;;;;;;;19.95;9.52;;;8.50;99.90;;;;;;4991943;28;20046;-69
2022/11/23 01:33:59;;;;;;;14.88;8.32;;;11.60;99.90;;;;;;5001954;28;20045;-69
2022/11/23 01:37:03;;;;;;;15.38;8.18;;;;;;;;;;5002034;28;20054;-69
2022/11/23 01:40:08;;;;;;;16.42;8.35;;;11.50;99.90;;;;;;4991322;28;20053;-69
2022/11/23 01:43:17;;;;;;;15.25;8.27;;;11.70;99.90;;;;;;4991407;28;20045;-69
2022/11/23 01:46:22;;;;;;;14.88;7.93;;;;;;;;;;5002022;28;20065;-69
2022/11/23 01:49:35;;;;;;;12.13;8.18;;;11.60;99.90;;;;;;4990362;28;20057;-69
2022/11/23 01:52:39;;;;;;;15.85;8.05;;;;;;;;;;4991534;28;20049;-69
2022/11/23 01:55:46;;;;;;;21.63;8.85;;;11.40;99.90;;;;;;4990431;28;20061;-68
2022/11/23 01:58:53;;;;;;;16.38;8.82;;;11.30;99.90;;;;;;4991097;28;20065;-68
2022/11/23 02:01:57;;;;;;;17.83;8.65;;;;;;;;;;4991108;28;20050;-69
2022/11/23 02:05:04;;;;;;;14.57;7.57;;;11.20;99.90;;;;;;4990428;28;20136;-69
2022/11/23 02:08:08;;;;;;;13.52;7.45;;;11.30;99.90;;;;;;4992682;28;20034;-69
2022/11/23 02:11:15;;;;;;;13.43;6.90;;;11.10;99.90;;;;;;5005172;28;20054;-68
2022/11/23 02:14:19;;;;;;;14.18;6.82;;;;;;;;;;5005093;28;20045;-68
2022/11/23 02:17:23;;;;;;;13.93;7.15;;;;;;;;;;4994525;28;20045;-68
2022/11/23 02:20:28;;;;;;;11.25;7.00;;;;;;;;;;5004935;28;20061;-68
2022/11/23 02:23:43;;;;;;;13.35;6.90;;;10.50;99.90;;;;;;4994430;28;20042;-69
2022/11/23 02:26:50;;;;;;;11.30;5.93;;;;;;;;;;5004825;28;20053;-69
2022/11/23 02:29:56;;;;;;;15.10;7.03;;;10.50;99.90;;;;;;4993236;28;20045;-68
2022/11/23 02:33:04;;;;;;;14.38;7.75;;;10.40;99.90;;;;;;5004749;28;20057;-69
2022/11/23 02:36:27;;;;;;;17.05;8.15;;;12.50;99.90;;;;;;4993954;28;20045;-69
2022/11/23 02:39:36;;;;;;;17.50;7.78;;;10.40;99.90;;;;;;4993904;28;20073;-69
2022/11/23 02:42:40;;;;;;;12.27;7.45;;;;;;;;;;5004559;28;20041;-68
2022/11/23 02:45:56;;;;;;;13.43;6.78;;;13.10;99.90;;;;;;4994003;28;20427;-69
2022/11/23 02:49:02;;;;;;;17.25;7.47;;;;;;;;;;5004229;28;20053;-69
2022/11/23 02:52:07;;;;;;;16.88;6.65;;;10.80;99.90;;;;;;4993041;28;20049;-68
2022/11/23 02:55:11;;;;;;;11.63;5.85;;;;;;;;;;5004329;28;20045;-68
2022/11/23 02:58:15;;;;;;;12.95;6.53;;;10.50;99.90;;;;;;4993791;28;20045;-68
2022/11/23 03:01:19;;;;;;;15.43;6.20;;;;;;;;;;5004147;28;20053;-68
2022/11/23 03:04:24;;;;;;;11.48;6.07;;;;;;;;;;5004212;28;20057;-68
2022/11/23 03:07:29;;;;;;;11.70;5.60;;;9.30;99.90;;;;;;5004079;28;20045;-68
2022/11/23 03:10:35;;;;;;;9.38;5.82;;;10.50;99.90;;;;;;5003947;28;20041;-68
2022/11/23 03:13:39;;;;;;;10.50;5.55;;;;;;;;;;5003935;28;20045;-69
2022/11/23 03:16:44;;;;;;;11.82;6.22;;;10.40;99.90;;;;;;5003963;28;20079;-68
2022/11/23 03:19:48;;;;;;;12.48;5.18;;;;;;;;;;4993025;28;20406;-68
2022/11/23 03:22:52;;;;;;;10.82;4.82;;;7.40;99.90;;;;;;5003883;28;20042;-68
2022/11/23 03:25:58;;;;;;;10.90;5.40;;;10.30;99.90;;;;;;5003867;28;20053;-68
2022/11/23 03:29:05;;;;;;;15.75;4.35;;;;;;;;;;4992222;28;20050;-68
2022/11/23 03:32:09;;;;;;;16.27;4.00;;;10.30;99.90;;;;;;5003647;28;20050;-68
2022/11/23 03:35:15;;;;;;;14.40;5.30;;;;;;;;;;5003804;28;20096;-68
2022/11/23 03:38:39;;;;;;;10.93;3.38;;;;;;;;;;5003678;28;20406;-68
2022/11/23 03:41:53;;;;;;;9.15;3.25;;;;;;;;;;5003239;28;20065;-68
2022/11/23 03:45:01;;;;;;;9.52;3.25;;;;;;;;;;4992275;28;20487;-68
2022/11/23 03:48:07;;;;;;;11.35;4.32;;;;;;;;;;4992035;28;20042;-68
2022/11/23 03:51:11;;;;;;;11.50;4.18;;;;;;;;;;4992950;28;20050;-68
2022/11/23 03:54:16;;;;;;;13.88;3.50;;;10.50;99.90;;;;;;5003344;28;20049;-68
2022/11/23 03:57:20;;;;;;;11.63;3.25;;;10.70;99.90;;;;;;5003131;28;20044;-68
2022/11/23 04:00:26;;;;;;;11.35;3.78;;;9.20;99.90;;;;;;5002986;28;20062;-68
2022/11/23 04:03:30;;;;;;;12.25;3.97;;;;;;;;;;5003032;28;20042;-68
2022/11/23 04:06:53;;;;;;;14.60;3.83;;;;;;;;;;4992750;28;20057;-68
2022/11/23 04:10:02;;;;;;;13.18;4.00;;;10.10;99.90;;;;;;5002737;28;20045;-68
2022/11/23 04:13:29;;;;;;;12.68;4.20;;;;;;;;;;4992162;28;20049;-68
2022/11/23 04:16:33;;;;;;;10.35;3.65;;;;;;;;;;4991316;28;20053;-68
2022/11/23 04:19:39;;;;;;;13.48;4.15;;;10.40;99.90;;;;;;5002690;28;20066;-68
2022/11/23 04:22:43;;;;;;;14.63;3.92;;;;;;;;;;4991529;28;20050;-69
2022/11/23 04:25:47;;;;;;;13.18;4.10;;;;;;;;;;5002555;28;20413;-68
2022/11/23 04:28:52;;;;;;;14.70;3.47;;;;;;;;;;4992259;28;20053;-68
2022/11/23 04:31:56;;;;;;;10.55;3.40;;;;;;;;;;4991227;28;20072;-68
2022/11/23 04:35:00;;;;;;;10.30;3.50;;;;;;;;;;4992009;28;20042;-68
2022/11/23 04:38:05;;;;;;;8.10;2.67;;;;;;;;;;4991062;28;20057;-68
2022/11/23 04:41:10;;;;;;;8.40;2.88;;;10.60;99.90;;;;;;5002239;28;20050;-68
2022/11/23 04:44:16;;;;;;;8.20;3.05;;;10.60;99.90;;;;;;4991298;28;20053;-68
2022/11/23 04:47:21;;;;;;;14.82;4.90;;;;;;;;;;4991017;28;20049;-68
2022/11/23 04:50:25;;;;;;;12.85;4.13;;;;;;;;;;5002259;28;20046;-68
2022/11/23 04:53:32;;;;;;;13.60;4.00;;;;;;;;;;4990933;28;20045;-68
2022/11/23 04:56:37;;;;;;;15.05;4.03;;;;;;;;;;4990925;28;20402;-68
2022/11/23 04:59:41;;;;;;;10.32;3.78;;;10.90;99.90;;;;;;4991558;28;20053;-68
2022/11/23 05:02:46;;;;;;;11.15;3.50;;;;;;;;;;4991713;28;20037;-68
2022/11/23 05:05:58;;;;;;;8.30;2.70;;;10.90;99.90;;;;;;4990811;28;20116;-68
2022/11/23 05:09:02;;;;;;;6.95;2.85;;;10.90;99.90;;;;;;5002284;28;20049;-68
2022/11/23 05:12:18;;;;;;;4.70;2.30;;;;;;;;;;5002269;28;20054;-68
2022/11/23 05:15:22;;;;;;;5.30;2.45;;;10.90;99.90;;;;;;4990830;28;20030;-68
2022/11/23 05:18:26;;;;;;;8.35;2.80;;;12.30;99.90;;;;;;5002304;28;20049;-68
2022/11/23 05:21:31;;;;;;;7.50;2.40;;;;;;;;;;5002029;28;20057;-68
2022/11/23 05:24:36;;;;;;;12.50;2.58;;;10.70;99.90;;;;;;5002028;28;20031;-68
2022/11/23 05:27:46;;;;;;;9.85;2.65;;;10.60;99.90;;;;;;5002031;28;20057;-69
2022/11/23 05:30:53;;;;;;;10.40;3.00;;;10.40;99.90;;;;;;5001719;28;20061;-68
2022/11/23 05:33:57;;;;;;;11.60;4.03;;;;;;;;;;5001830;28;20057;-68
2022/11/23 05:37:12;;;;;;;11.27;3.78;;;10.40;99.90;;;;;;4990775;28;20049;-68
2022/11/23 05:40:26;;;;;;;9.48;3.08;;;;;;;;;;5001623;28;20072;-68
2022/11/23 05:43:34;;;;;;;8.38;2.78;;;;;;;;;;5005778;28;20042;-68
2022/11/23 05:46:39;;;;;;;7.78;2.72;;;;;;;;;;4994252;28;20491;-68
2022/11/23 05:49:44;;;;;;;8.82;2.60;;;;;;;;;;5005539;28;20050;-68
2022/11/23 05:52:50;;;;;;;9.30;3.13;;;10.50;99.90;;;;;;5005870;28;20050;-68
2022/11/23 05:55:59;;;;;;;10.80;3.85;;;10.60;99.90;;;;;;5005652;28;20053;-68
2022/11/23 05:59:05;;;;;;;13.68;3.92;;;;;;;;;;5005238;28;20049;-68
2022/11/23 06:02:12;;;;;;;13.82;4.30;;;10.80;99.90;;;;;;5005273;28;20073;-68
2022/11/23 06:05:16;;;;;;;14.43;4.75;;;11.10;99.90;;;;;;5005222;28;20126;-68
2022/11/23 06:08:25;;;;;;;13.55;4.95;;;;;;;;;;4994978;28;20045;-68
2022/11/23 06:11:30;;;;;;;12.15;5.00;;;10.40;99.90;;;;;;4994671;28;20063;-68
2022/11/23 06:14:40;;;;;;;11.93;5.00;;;;;;;;;;5004884;28;20049;-68
2022/11/23 06:17:44;;;;;;;12.85;4.95;;;10.30;99.90;;;;;;4993620;28;20053;-68
2022/11/23 06:20:52;;;;;;;12.23;5.22;;;10.10;99.90;;;;;;5004772;28;20057;-68
2022/11/23 06:23:56;;;;;;;18.60;5.90;;;;;;;;;;4994408;28;20110;-68
2022/11/23 06:27:02;;;;;;;10.70;5.22;;;;;;;;;;5004722;28;20045;-68
2022/11/23 06:30:07;;;;;;;11.43;5.55;;;10.20;99.90;;;;;;5004120;28;20049;-71
2022/11/23 06:33:11;;;;;;;16.48;5.28;;;10.20;99.90;;;;;;4993367;28;20045;-72
2022/11/23 06:36:27;;;;;;;11.45;4.85;;;10.30;99.90;;;;;;5004038;28;20069;-72
2022/11/23 06:39:31;;;;;;;11.38;4.75;;;;;;;;;;5003954;28;20049;-73
2022/11/23 06:42:37;;;;;;;17.52;6.07;;;10.30;99.90;;;;;;5004332;28;20494;-73
2022/11/23 06:45:41;;;;;;;14.82;5.50;;;;;;;;;;4993976;28;20046;-73
2022/11/23 06:48:49;;;;;;;12.48;5.95;;;;;;;;;;5004778;28;20045;-72
2022/11/23 06:51:53;;;;;;;18.58;6.05;;;10.40;99.90;;;;;;4993154;28;20053;-72
2022/11/23 06:54:58;;;;;;;21.67;6.00;;;;;;;;;;5004287;28;20390;-73
2022/11/23 06:58:02;;;;;;;17.65;6.32;;;;;;;;;;5004452;28;20390;-72
2022/11/23 07:01:08;;;;;;;15.73;6.22;;;11.30;99.90;;;;;;4993752;28;20509;-72
2022/11/23 07:04:19;;;;;;;13.30;5.43;;;;;;;;;;5004278;28;20041;-73
2022/11/23 07:07:27;;;;;;;14.20;5.57;;;;;;;;;;4992582;28;20049;-73
2022/11/23 07:10:39;;;;;;;18.65;4.68;;;;;;;;;;5004031;28;20050;-73
2022/11/23 07:13:46;;;;;;;21.83;4.65;;;11.10;99.90;;;;;;4992409;28;20050;-73
2022/11/23 07:16:51;;;;;;;17.60;4.93;;;;;;;;;;5003969;28;20049;-73
2022/11/23 07:19:56;;;;;;;11.75;4.13;;;11.60;99.90;;;;;;5003912;28;20414;-72
2022/11/23 07:23:05;;;;;;;13.38;4.28;;;11.60;99.90;;;;;;5003922;28;20042;-73
2022/11/23 07:26:10;;;;;;;15.13;4.80;;;;;;;;;;4992111;28;20050;-73
2022/11/23 07:29:15;;;;;;;13.85;4.22;;;;;;;;;;5003203;28;20049;-72
2022/11/23 07:32:20;;;;;;;17.48;4.47;;;;;;;;;;4993209;28;20533;-71
2022/11/23 07:35:23;;;;;;;17.23;5.07;;;12.20;99.90;;;;;;4992586;28;20045;-72
2022/11/23 07:38:29;;;;;;;17.08;4.97;;;13.10;99.90;;;;;;5003400;28;20041;-71
2022/11/23 07:41:33;;;;;;;15.38;5.18;;;12.70;99.90;;;;;;4991914;28;20057;-71
2022/11/23 07:45:04;;;;;;;17.88;5.50;;;12.00;99.90;;;;;;5003629;28;20065;-72
2022/11/23 07:48:11;;;;;;;17.10;4.40;;;11.10;99.90;;;;;;4991924;28;20406;-72
2022/11/23 07:51:15;;;;;;;13.90;3.88;;;13.20;99.90;;;;;;4992773;28;20053;-72
2022/11/23 07:54:20;;;;;;;17.83;4.25;;;;;;;;;;4993351;28;20043;-72
2022/11/23 07:57:23;;;;;;;15.93;3.90;;;13.10;99.90;;;;;;4992675;28;20129;-71
2022/11/23 08:00:28;;;;;;;13.82;4.25;;;13.30;99.90;;;;;;4992374;28;20053;-71
2022/11/23 08:03:32;;;;;;;16.55;5.55;;;13.40;99.90;;;;;;4992759;28;20231;-72
2022/11/23 08:06:36;;;;;;;10.55;3.88;;;13.80;99.90;;;;;;4992340;28;20502;-72
2022/11/23 08:09:40;;;;;;;15.27;4.40;;;13.80;99.90;;;;;;4992496;28;20053;-72
2022/11/23 08:12:45;;;;;;;10.35;3.50;;;14.00;99.90;;;;;;4992202;28;20045;-71
2022/11/23 08:15:49;;;;;;;17.92;4.45;;;14.10;99.90;;;;;;4992202;28;20049;-72
2022/11/23 08:18:53;;;;;;;13.45;3.75;;;14.20;99.90;;;;;;4992143;28;20049;-73
2022/11/23 08:21:57;;;;;;;11.55;3.40;;;14.20;99.90;;;;;;4992234;28;20065;-73
2022/11/23 08:25:01;;;;;;;14.55;3.88;;;14.30;99.90;;;;;;4992124;28;20430;-73
2022/11/23 08:28:05;;;;;;;13.40;4.30;;;14.40;99.90;;;;;;4992276;28;20398;-73
2022/11/23 08:31:10;;;;;;;9.60;3.67;;;14.70;99.90;;;;;;4991569;28;20057;-73
2022/11/23 08:34:14;;;;;;;14.25;4.20;;;14.90;99.90;;;;;;4992032;28;20049;-73
2022/11/23 08:37:18;;;;;;;9.40;3.72;;;15.20;99.90;;;;;;4991072;28;20304;-73
2022/11/23 08:40:22;;;;;;;6.20;3.28;;;15.30;99.90;;;;;;4991799;28;20057;-73
2022/11/23 08:43:27;;;;;;;12.40;3.83;;;15.50;99.90;;;;;;4991912;28;20037;-73
2022/11/23 08:46:31;;;;;;;9.05;3.38;;;15.60;99.90;;;;;;4992041;28;20045;-73
2022/11/23 08:49:35;;;;;;;9.02;3.10;;;15.70;99.90;;;;;;4991778;28;20042;-73
2022/11/23 08:52:39;;;;;;;8.15;2.45;;;15.80;99.80;;;;;;4991767;28;20061;-73
2022/11/23 08:55:43;;;;;;;8.52;2.35;;;15.90;98.50;;;;;;4991648;28;20410;-73
2022/11/23 08:58:47;;;;;;;6.55;2.70;;;16.00;98.00;;;;;;4991452;28;20072;-73
2022/11/23 09:01:51;;;;;;;13.98;2.33;;;16.10;97.70;;;;;;4991174;28;20130;-73
2022/11/23 09:04:55;;;;;;;11.73;2.97;;;16.20;97.20;;;;;;4991220;28;20042;-73
2022/11/23 09:08:00;;;;;;;15.32;3.33;;;16.30;96.90;;;;;;4991683;28;20122;-73
2022/11/23 09:11:06;;;;;;;11.63;2.70;;;16.40;96.30;;;;;;4991293;28;20054;-73
2022/11/23 09:14:11;;;;;;;13.68;3.97;;;16.50;96.40;;;;;;4991447;28;20049;-73
2022/11/23 09:17:14;;;;;;;12.35;2.83;;;16.70;95.80;;;;;;4994738;28;20493;-73
2022/11/23 09:20:18;;;;;;;7.40;2.47;;;16.80;94.90;;;;;;4995063;28;20521;-72
2022/11/23 09:23:23;;;;;;;6.88;2.30;;;16.90;95.10;;;;;;4995497;28;20225;-73
2022/11/23 09:26:27;;;;;;;9.15;2.55;;;17.00;94.00;;;;;;4995403;28;20045;-73
2022/11/23 09:29:32;;;;;;;16.08;2.67;;;17.10;94.30;;;;;;4995328;28;20053;-73
2022/11/23 09:32:35;;;;;;;9.23;2.50;;;17.20;93.90;;;;;;4995352;28;20073;-73
2022/11/23 09:35:40;;;;;;;11.50;2.42;;;17.40;93.90;;;;;;4995405;28;20053;-73
2022/11/23 09:38:44;;;;;;;9.70;2.72;;;17.50;93.40;;;;;;4995222;28;20049;-73
2022/11/23 09:42:13;;;;;;;6.05;2.35;;;17.70;93.20;;;;;;4994101;28;20057;-73
2022/11/23 09:45:32;;;;;;;7.30;2.13;;;17.80;93.00;;;;;;4994733;28;20054;-73
2022/11/23 09:49:04;;;;;;;7.97;2.80;;;18.00;92.80;;;;;;4994770;28;20038;-73
2022/11/23 09:52:17;;;;;;;8.90;2.33;;;18.10;91.50;;;;;;4995005;28;20390;-73
2022/11/23 09:55:26;;;;;;;5.28;1.85;;;18.20;91.20;;;;;;4995079;28;20053;-74
2022/11/23 09:58:38;;;;;;;13.82;2.55;;;18.20;91.30;;;;;;4994605;28;20049;-73
2022/11/23 10:01:42;;;;;;;14.90;2.78;;;18.40;91.70;;;;;;4994768;28;20057;-73
2022/11/23 10:04:46;;;;;;;17.65;2.67;;;18.50;91.20;;;;;;4994577;28;20045;-72
2022/11/23 10:08:08;;;;;;;12.85;2.90;;;18.60;91.50;;;;;;4994747;28;20157;-73
2022/11/23 10:11:24;;;;;;;17.00;3.38;;;18.70;91.00;;;;;;4994398;28;20061;-73
2022/11/23 10:14:53;;;;;;;6.88;3.15;;;18.80;90.60;;;;;;4994057;28;20037;-73
2022/11/23 10:18:02;;;;;;;9.73;2.72;;;18.90;90.40;;;;;;4994023;28;20053;-72
2022/11/23 10:21:35;;;;;;;5.90;1.65;;;19.00;89.60;;;;;;4993921;28;20050;-74
2022/11/23 10:24:46;;;;;;;6.13;1.73;;;19.10;88.00;;;;;;4991867;28;20037;-75
2022/11/23 10:27:57;;;;;;;5.35;2.22;;;19.10;87.50;;;;;;4993325;28;20045;-74
2022/11/23 10:31:20;;;;;;;9.77;2.03;;;19.10;87.10;;;;;;4994112;28;20053;-76
2022/11/23 10:34:49;;;;;;;4.55;1.23;;;19.20;86.10;;;;;;4994439;28;20050;-76
2022/11/23 10:38:18;;;;;;;7.60;1.83;;;19.30;84.40;;;;;;4993000;28;20084;-73
2022/11/23 10:41:22;;;;;;;5.38;1.15;;;19.40;85.20;;;;;;4993894;28;20054;-74
2022/11/23 10:44:36;;;;;;;6.85;1.40;;;19.30;81.80;;;;;;4994108;28;20053;-76
2022/11/23 10:47:48;;;;;;;8.60;1.70;;;19.40;83.20;;;;;;4994047;28;20053;-71
2022/11/23 10:50:52;;;;;;;5.63;1.80;;;19.40;83.50;;;;;;4993565;28;20042;-73
2022/11/23 10:54:00;;;;;;;7.90;1.33;;;19.40;82.20;;;;;;4993273;28;20168;-72
2022/11/23 10:57:26;;;;;;;6.25;1.92;;;19.30;82.10;;;;;;4993639;28;20045;-75
2022/11/23 11:00:30;;;;;;;7.93;1.10;;;19.30;79.40;;;;;;4992795;28;20058;-71
2022/11/23 11:03:34;;;;;;;7.82;1.40;;;19.20;79.60;;;;;;4993458;28;20049;-72
2022/11/23 11:06:39;;;;;;;4.68;1.20;;;19.10;80.70;;;;;;4993786;28;20045;-72
2022/11/23 11:09:51;;;;;;;4.75;1.10;;;19.10;78.70;;;;;;4993612;28;20562;-71
2022/11/23 11:12:55;;;;;;;3.38;1.23;;;19.00;78.80;;;;;;4993485;28;20045;-71
2022/11/23 11:16:04;;;;;;;5.93;1.60;;;18.90;80.80;;;;;;4993484;28;20053;-72
2022/11/23 11:19:33;;;;;;;3.47;1.27;;;18.90;80.40;;;;;;4993358;28;20065;-71
2022/11/23 11:22:38;;;;;;;4.00;1.25;;;18.80;80.80;;;;;;4993220;28;20057;-72
2022/11/23 11:25:42;;;;;;;6.80;2.55;;;18.70;81.60;;;;;;4993203;28;20045;-72
2022/11/23 11:28:52;;;;;;;9.85;1.23;;;18.70;82.80;;;;;;4993055;28;20049;-71
2022/11/23 11:32:05;;;;;;;3.47;1.08;;;18.60;82.60;;;;;;4992590;28;20062;-71
2022/11/23 11:35:21;;;;;;;4.28;1.00;;;18.60;82.00;;;;;;4992761;28;20049;-70
2022/11/23 11:38:32;;;;;;;3.83;1.35;;;18.50;81.10;;;;;;4992743;28;20037;-70
2022/11/23 11:41:37;;;;;;;2.42;0.90;;;18.50;80.70;;;;;;4992833;28;20057;-71
2022/11/23 11:44:44;;;;;;;4.72;1.50;;;18.40;80.80;;;;;;4992057;28;20046;-75
2022/11/23 11:48:07;;;;;;;3.95;1.08;;;18.40;79.30;;;;;;4993494;28;20041;-73
2022/11/23 11:51:21;;;;;;;2.15;0.77;;;18.30;78.40;;;;;;4992504;28;20057;-75
2022/11/23 11:54:52;;;;;;;2.85;0.90;;;18.30;76.70;;;;;;4992498;28;20045;-78
2022/11/23 11:58:10;;;;;;;2.33;0.90;;;18.20;77.50;;;;;;4992433;28;20042;-73
2022/11/23 12:01:39;;;;;;;1.83;0.93;;;18.20;78.50;;;;;;4991038;28;20065;-73
2022/11/23 12:04:51;;;;;;;4.97;1.00;;;18.20;78.20;;;;;;4992564;28;20045;-73
2022/11/23 12:08:24;;;;;;;3.42;1.13;;;18.20;78.60;;;;;;4992377;28;20042;-72
2022/11/23 12:11:28;;;;;;;4.13;1.20;;;18.20;78.80;;;;;;4995874;28;20045;-73
2022/11/23 12:14:32;;;;;;;4.65;1.40;;;18.10;78.00;;;;;;4991350;28;20061;-74
2022/11/23 12:18:03;;;;;;;3.67;1.60;;;18.00;75.10;;;;;;4991430;28;20053;-74
2022/11/23 12:21:19;;;;;;;12.48;1.75;;;18.00;78.00;;;;;;4992027;28;20066;-75
2022/11/23 12:24:46;;;;;;;7.07;1.55;;;18.00;78.50;;;;;;4992147;28;20045;-74
2022/11/23 12:28:26;;;;;;;6.93;1.30;;;17.90;79.20;;;;;;4992356;28;20045;-75
2022/11/23 12:31:50;;;;;;;7.90;2.03;;;17.90;78.90;;;;;;4979180;28;20073;-75
2022/11/23 12:35:27;;;;;;;3.53;2.28;;;17.80;77.40;;;;;;4992183;28;20061;-74
2022/11/23 12:38:59;;;;;;;3.22;1.20;;;17.80;78.00;;;;;;4992166;28;20042;-75
2022/11/23 12:42:07;;;;;;;4.60;2.20;;;17.80;79.30;;;;;;4991774;28;20131;-73
2022/11/23 12:45:28;;;;;;;3.45;1.10;;;17.80;79.50;;;;;;4991837;28;20054;-73
2022/11/23 12:48:56;;;;;;;;;;;17.70;79.30;;;;;;4992267;28;20049;-75
2022/11/23 12:52:15;;;;;;;5.82;1.02;;;17.70;78.70;;;;;;4991299;28;20366;-75
2022/11/23 12:55:23;;;;;;;4.53;1.20;;;17.60;78.30;;;;;;4991468;28;20041;-74
2022/11/23 12:58:29;;;;;;;6.18;1.05;;;17.60;78.80;;;;;;4991612;28;20049;-74
2022/11/23 13:01:38;;;;;;;4.45;1.27;;;17.60;79.50;;;;;;4991579;28;20081;-75
2022/11/23 13:04:58;;;;;;;7.03;1.30;;;17.60;79.20;;;;;;4991560;28;20505;-77
2022/11/23 13:08:23;;;;;;;4.88;1.38;;;17.50;78.40;;;;;;4991298;28;20406;-74
2022/11/23 13:11:54;;;;;;;5.03;1.30;;;17.50;78.70;;;;;;4990996;28;20046;-75
2022/11/23 13:15:32;;;;;;;7.13;1.42;;;17.50;80.60;;;;;;4991804;28;20049;-74
2022/11/23 13:18:52;;;;;;;5.57;1.77;;;17.50;79.90;;;;;;4991039;28;20049;-74
2022/11/23 13:21:57;;;;;;;6.50;2.10;;;17.40;81.50;;;;;;4991513;28;20049;-74
2022/11/23 13:25:28;;;;;;;4.65;1.45;;;17.30;81.70;;;;;;4991610;28;20042;-74
2022/11/23 13:28:32;;;;;;;5.90;1.40;;;17.40;82.60;;;;;;4991257;28;20053;-74
2022/11/23 13:31:36;;;;;;;9.05;1.67;;;17.30;82.40;;;;;;4991396;28;20426;-74
2022/11/23 13:34:45;;;;;;;8.70;1.10;;;17.30;83.40;;;;;;4991093;28;20054;-74
2022/11/23 13:37:56;;;;;;;8.50;1.23;;;17.20;82.80;;;;;;5001615;28;20050;-74
2022/11/23 13:41:00;;;;;;;9.80;1.77;;;17.20;83.80;;;;;;4991466;28;20462;-75
2022/11/23 13:44:11;;;;;;;6.88;1.80;;;17.10;85.20;;;;;;4991433;28;20049;-74
2022/11/23 13:47:19;;;;;;;;;;;17.10;85.10;;;;;;4991722;28;20053;-75
2022/11/23 13:50:23;;;;;;;12.82;2.17;;;17.10;84.00;;;;;;4991313;28;19909;-75
2022/11/23 13:53:39;;;;;;;7.32;1.80;;;17.10;85.60;;;;;;4991223;28;20041;-74
2022/11/23 13:56:44;;;;;;;7.60;1.73;;;17.00;85.50;;;;;;4991670;28;20050;-74
2022/11/23 13:59:48;;;;;;;9.35;2.05;;;17.00;85.30;;;;;;5001408;28;20041;-74
2022/11/23 14:03:30;;;;;;;8.55;1.90;;;17.00;86.30;;;;;;4991755;28;20050;-75
2022/11/23 14:06:50;;;;;;;8.25;2.03;;;16.90;85.50;;;;;;4994743;28;20037;-75
2022/11/23 14:10:02;;;;;;;8.15;2.10;;;16.90;86.60;;;;;;4994434;28;20509;-74
2022/11/23 14:13:24;;;;;;;11.23;2.83;;;16.90;85.90;;;;;;4994826;28;20049;-74
2022/11/23 14:17:00;;;;;;;10.02;2.20;;;16.80;86.50;;;;;;4994570;28;20041;-74
2022/11/23 14:20:07;;;;;;;10.70;3.25;;;16.80;86.70;;;;;;4994291;28;20045;-74
2022/11/23 14:23:44;;;;;;;12.38;3.80;;;16.80;87.40;;;;;;4994446;28;20065;-74
2022/11/23 14:27:03;;;;;;;9.73;3.22;;;16.80;88.00;;;;;;4994219;28;20042;-75
2022/11/23 14:30:42;;;;;;;8.07;2.40;;;16.70;87.80;;;;;;4993948;28;20058;-75
2022/11/23 14:33:52;;;;;;;11.88;2.58;;;16.70;88.70;;;;;;4988412;28;20061;-74
2022/11/23 14:37:18;;;;;;;14.30;2.50;;;16.70;88.30;;;;;;4994244;28;20407;-75
2022/11/23 14:40:28;;;;;;;11.82;2.70;;;16.60;88.00;;;;;;4994059;28;20033;-75
2022/11/23 14:43:34;;;;;;;14.80;3.33;;;16.60;88.80;;;;;;4994148;28;20434;-74
2022/11/23 14:46:59;;;;;;;12.60;2.50;;;16.60;89.60;;;;;;4994002;28;20114;-74
2022/11/23 14:50:03;;;;;;;9.38;2.97;;;16.60;88.90;;;;;;4993913;28;20418;-74
2022/11/23 14:53:09;;;;;;;15.57;3.42;;;16.50;88.60;;;;;;4993407;28;20101;-74
2022/11/23 14:56:28;;;;;;;18.42;3.08;;;16.40;88.80;;;;;;4993949;28;20236;-74
2022/11/23 14:59:36;;;;;;;20.88;2.60;;;16.40;89.80;;;;;;5003939;28;20422;-74
2022/11/23 15:02:41;;;;;;;11.48;2.33;;;16.40;89.40;;;;;;4993311;28;20053;-74
2022/11/23 15:05:51;;;;;;;19.02;2.85;;;16.30;89.40;;;;;;4993389;28;20041;-73
2022/11/23 15:09:23;;;;;;;11.93;3.78;;;16.30;90.00;;;;;;4993178;28;20045;-74
2022/11/23 15:12:39;;;;;;;14.35;6.10;;;16.20;89.50;;;;;;4993613;28;20049;-74
2022/11/23 15:15:44;;;;;;;18.73;4.13;;;16.20;89.90;;;;;;4993370;28;20119;-73
2022/11/23 15:18:48;;;;;;;21.35;3.88;;;16.10;89.80;;;;;;4993206;28;20045;-73
2022/11/23 15:21:55;;;;;;;14.57;3.83;;;16.00;89.80;;;;;;4991292;28;20061;-75
2022/11/23 15:25:13;;;;;;;23.67;5.82;;;16.00;90.20;;;;;;4990835;28;20053;-75
2022/11/23 15:28:20;;;;;;;21.85;6.03;;;15.90;90.40;;;;;;4990904;28;20398;-74
2022/11/23 15:31:32;;;;;;;16.80;4.82;;;15.80;90.40;;;;;;4991369;28;20082;-72
2022/11/23 15:34:36;;;;;;;30.13;6.15;;;15.80;90.50;;;;;;4991630;28;20053;-78
2022/11/23 15:37:48;;;;;;;19.02;5.60;;;15.70;90.70;;;;;;4991963;28;20057;-73
2022/11/23 15:40:53;;;;;;;27.20;6.32;;;15.60;91.00;;;;;;4992913;28;20049;-73
2022/11/23 15:44:00;;;;;;;22.80;6.35;;;15.60;91.30;;;;;;4991566;28;20053;-75
2022/11/23 15:47:06;;;;;;;23.15;6.38;;;15.50;91.30;;;;;;4992223;28;20049;-72
2022/11/23 15:50:13;;;;;;;32.20;7.15;;;15.50;91.40;;;;;;4992515;28;20157;-73
2022/11/23 15:53:19;;;;;;;23.00;5.40;;;15.50;91.50;;;;;;4991618;28;20045;-74
2022/11/23 15:56:37;;;;;;;22.77;6.53;;;15.40;91.60;;;;;;4992207;28;20045;-73
2022/11/23 16:00:04;;;;;;;21.25;6.60;;;15.30;91.60;;;;;;4992569;28;20053;-73
2022/11/23 16:03:24;;;;;;;20.90;6.82;;;15.30;91.70;;;;;;4996399;28;20057;-73
2022/11/23 16:06:46;;;;;;;19.70;7.22;;;15.30;91.90;;;;;;4996616;28;20041;-72
2022/11/23 16:10:06;;;;;;;22.63;6.97;;;15.20;92.00;;;;;;4992729;28;20049;-71
2022/11/23 16:13:34;;;;;;;37.65;20.60;;;15.20;92.00;;;;;;4992233;28;20045;-71
2022/11/23 16:16:38;;;;;;;22.25;9.05;;;15.20;92.00;;;;;;5002619;28;20046;-72
2022/11/23 16:19:54;;;;;;;29.05;9.40;;;15.20;91.90;;;;;;4992075;28;20046;-71
2022/11/23 16:22:59;;;;;;;31.83;12.30;;;15.10;91.90;;;;;;4992075;28;20129;-70
2022/11/23 16:26:05;;;;;;;21.33;8.55;;;15.10;92.00;;;;;;4991822;28;20052;-75
2022/11/23 16:29:36;;;;;;;24.98;8.65;;;15.00;92.10;;;;;;4992933;28;20106;-73
2022/11/23 16:32:40;;;;;;;29.00;8.65;;;15.00;92.10;;;;;;4973353;28;20069;-77
2022/11/23 16:35:44;;;;;;;33.17;8.98;;;15.00;92.20;;;;;;4973549;28;20058;-73
2022/11/23 16:38:48;;;;;;;25.02;8.57;;;15.00;92.10;;;;;;4973739;28;20050;-75
2022/11/23 16:41:52;;;;;;;27.20;8.45;;;14.90;92.30;;;;;;4973157;28;20145;-74
2022/11/23 16:44:57;;;;;;;30.65;8.80;;;14.90;92.40;;;;;;4973293;28;20042;-74
2022/11/23 16:48:01;;;;;;;28.42;8.65;;;14.80;92.50;;;;;;4982796;28;20211;-72
2022/11/23 16:51:06;;;;;;;23.50;7.65;;;14.70;92.70;;;;;;4972865;28;20054;-73